createdAt,value
2022-10-23T00:01:28.258Z,13.07
2022-10-23T00:04:03.585Z,13.17
2022-10-23T00:06:32.987Z,13.12
2022-10-23T00:09:01.563Z,13.42
2022-10-23T00:11:30.804Z,13.36
2022-10-23T00:14:01.819Z,13.18
2022-10-23T00:16:30.927Z,13.15
2022-10-23T00:18:59.415Z,13.09
2022-10-23T00:21:27.469Z,13.38
2022-10-23T00:23:55.461Z,13.18
2022-10-23T00:26:23.139Z,13.39
2022-10-23T00:28:53.441Z,13.33
2022-10-23T00:31:23.338Z,13.51
2022-10-23T00:33:51.473Z,13.42
2022-10-23T00:36:20.774Z,13.60
2022-10-23T00:38:49.650Z,13.48
2022-10-23T00:41:23.004Z,13.40
2022-10-23T00:44:30.777Z,13.39
2022-10-23T00:46:59.385Z,13.35
2022-10-23T00:49:28.337Z,13.38
2022-10-23T00:51:58.861Z,13.48
2022-10-23T00:54:31.695Z,13.45
2022-10-23T00:57:03.400Z,13.14
2022-10-23T00:59:31.248Z,13.30
2022-10-23T01:02:00.074Z,13.13
2022-10-23T01:04:28.392Z,13.23
2022-10-23T01:07:29.326Z,13.23
2022-10-23T01:10:17.927Z,13.31
2022-10-23T01:12:55.838Z,13.24
2022-10-23T01:16:05.772Z,13.27
2022-10-23T01:18:46.560Z,13.39
2022-10-23T01:21:20.555Z,13.18
2022-10-23T01:24:01.559Z,13.26
2022-10-23T01:26:29.524Z,13.43
2022-10-23T01:29:09.560Z,13.31
2022-10-23T01:31:43.562Z,13.38
2022-10-23T01:34:28.587Z,12.95
2022-10-23T01:36:59.255Z,13.24
2022-10-23T01:39:37.037Z,13.16
2022-10-23T01:42:20.943Z,13.16
2022-10-23T01:45:13.740Z,13.30
2022-10-23T01:47:43.989Z,13.26
2022-10-23T01:50:15.419Z,13.41
2022-10-23T01:52:43.858Z,13.43
2022-10-23T01:55:15.389Z,13.15
2022-10-23T01:57:45.523Z,13.24
2022-10-23T02:00:16.502Z,13.32
2022-10-23T02:02:52.682Z,13.27
2022-10-23T02:05:24.081Z,13.13
2022-10-23T02:07:53.457Z,13.13
2022-10-23T02:10:30.026Z,13.18
2022-10-23T02:13:12.117Z,13.12
2022-10-23T02:15:52.336Z,13.24
2022-10-23T02:18:34.801Z,12.85
2022-10-23T02:21:11.846Z,13.02
2022-10-23T02:23:42.508Z,13.29
2022-10-23T02:26:18.582Z,13.20
2022-10-23T02:28:52.271Z,12.78
2022-10-23T02:31:23.263Z,13.15
2022-10-23T02:33:51.693Z,13.21
2022-10-23T02:36:19.878Z,13.11
2022-10-23T02:38:48.065Z,12.78
2022-10-23T02:41:46.691Z,12.50
2022-10-23T02:44:25.107Z,12.82
2022-10-23T02:46:58.766Z,12.52
2022-10-23T02:49:35.902Z,12.58
2022-10-23T02:52:20.734Z,12.33
2022-10-23T02:55:04.121Z,12.61
2022-10-23T02:57:37.784Z,12.72
2022-10-23T03:00:16.299Z,12.99
2022-10-23T03:03:04.618Z,12.92
2022-10-23T03:05:38.121Z,12.90
2022-10-23T03:08:09.314Z,12.98
2022-10-23T03:10:37.386Z,12.97
2022-10-23T03:13:07.451Z,12.64
2022-10-23T03:15:39.830Z,12.53
2022-10-23T03:18:07.554Z,12.54
2022-10-23T03:20:35.535Z,12.33
2022-10-23T03:23:03.150Z,12.64
2022-10-23T03:25:30.762Z,12.70
2022-10-23T03:28:00.295Z,12.78
2022-10-23T03:30:27.991Z,12.90
2022-10-23T03:32:55.606Z,12.96
2022-10-23T03:35:23.529Z,13.05
2022-10-23T03:37:51.312Z,13.21
2022-10-23T03:40:18.936Z,13.23
2022-10-23T03:42:46.727Z,13.00
2022-10-23T03:45:15.089Z,13.01
2022-10-23T03:47:43.057Z,13.05
2022-10-23T03:50:11.798Z,12.87
2022-10-23T03:52:40.050Z,13.14
2022-10-23T03:55:08.561Z,13.26
2022-10-23T03:57:37.611Z,13.25
2022-10-23T04:00:06.962Z,13.20
2022-10-23T04:02:44.215Z,12.66
2022-10-23T04:05:12.620Z,12.57
2022-10-23T04:07:40.939Z,12.68
2022-10-23T04:10:09.012Z,12.66
2022-10-23T04:12:36.905Z,12.72
2022-10-23T04:15:04.933Z,12.82
2022-10-23T04:17:32.533Z,13.08
2022-10-23T04:20:00.465Z,13.17
2022-10-23T04:22:28.600Z,12.52
2022-10-23T04:24:56.487Z,12.56
2022-10-23T04:27:24.471Z,12.47
2022-10-23T04:29:54.339Z,12.98
2022-10-23T04:32:24.759Z,12.75
2022-10-23T04:34:52.397Z,12.75
2022-10-23T04:37:19.978Z,12.87
2022-10-23T04:39:47.998Z,12.48
2022-10-23T04:42:15.609Z,12.37
2022-10-23T04:44:43.215Z,12.71
2022-10-23T04:47:12.055Z,12.69
2022-10-23T04:49:40.525Z,12.72
2022-10-23T04:52:10.937Z,12.87
2022-10-23T04:54:39.682Z,12.94
2022-10-23T04:57:07.636Z,12.95
2022-10-23T04:59:37.177Z,12.87
2022-10-23T05:02:04.934Z,12.87
2022-10-23T05:04:32.593Z,12.71
2022-10-23T05:07:05.559Z,12.68
2022-10-23T05:09:33.366Z,12.58
2022-10-23T05:12:03.659Z,12.34
2022-10-23T05:14:31.197Z,12.67
2022-10-23T05:17:07.816Z,12.70
2022-10-23T05:19:42.337Z,12.55
2022-10-23T05:22:11.130Z,12.31
2022-10-23T05:24:46.946Z,12.53
2022-10-23T05:27:19.710Z,11.62
2022-10-23T05:29:47.561Z,11.70
2022-10-23T05:32:16.808Z,11.03
2022-10-23T05:34:44.690Z,11.58
2022-10-23T05:37:14.654Z,11.70
2022-10-23T05:39:43.087Z,11.73
2022-10-23T05:42:11.064Z,11.65
2022-10-23T05:44:39.498Z,12.01
2022-10-23T05:47:07.921Z,11.45
2022-10-23T05:49:36.731Z,11.98
2022-10-23T05:52:11.575Z,11.91
2022-10-23T05:54:39.747Z,11.21
2022-10-23T05:57:13.103Z,11.42
2022-10-23T05:59:41.984Z,11.85
2022-10-23T06:02:10.323Z,12.17
2022-10-23T06:04:41.321Z,11.86
2022-10-23T06:07:10.782Z,11.86
2022-10-23T06:09:38.777Z,11.97
2022-10-23T06:12:06.629Z,11.95
2022-10-23T06:14:34.592Z,12.02
2022-10-23T06:17:02.488Z,11.87
2022-10-23T06:19:30.109Z,11.58
2022-10-23T06:21:57.746Z,12.24
2022-10-23T06:24:26.229Z,11.99
2022-10-23T06:26:54.045Z,12.26
2022-10-23T06:29:22.627Z,11.97
2022-10-23T06:31:50.667Z,12.30
2022-10-23T06:34:18.465Z,12.41
2022-10-23T06:36:46.534Z,11.96
2022-10-23T06:39:15.346Z,12.62
2022-10-23T06:41:45.466Z,12.62
2022-10-23T06:44:31.058Z,12.49
2022-10-23T06:47:00.731Z,12.60
2022-10-23T06:49:40.298Z,12.27
2022-10-23T06:52:14.372Z,12.32
2022-10-23T06:54:51.183Z,12.36
2022-10-23T06:57:18.900Z,11.59
2022-10-23T06:59:46.622Z,11.96
2022-10-23T07:02:16.424Z,12.41
2022-10-23T07:04:45.106Z,12.48
2022-10-23T07:07:12.915Z,12.48
2022-10-23T07:09:42.294Z,12.05
2022-10-23T07:12:11.376Z,12.12
2022-10-23T07:14:39.394Z,11.32
2022-10-23T07:17:07.328Z,12.27
2022-10-23T07:19:35.079Z,12.05
2022-10-23T07:22:03.157Z,11.98
2022-10-23T07:24:37.046Z,11.96
2022-10-23T07:27:05.960Z,12.11
2022-10-23T07:29:34.045Z,12.53
2022-10-23T07:32:01.896Z,12.82
2022-10-23T07:34:32.091Z,11.05
2022-10-23T07:37:01.250Z,11.96
2022-10-23T07:39:28.903Z,11.70
2022-10-23T07:41:56.465Z,12.49
2022-10-23T07:44:27.061Z,12.78
2022-10-23T07:46:55.861Z,12.53
2022-10-23T07:49:23.423Z,11.94
2022-10-23T07:51:52.901Z,11.93
2022-10-23T07:54:20.734Z,12.23
2022-10-23T07:56:50.429Z,12.08
2022-10-23T07:59:19.519Z,12.22
2022-10-23T08:01:50.573Z,11.87
2022-10-23T08:04:22.379Z,12.34
2022-10-23T08:06:50.656Z,11.80
2022-10-23T08:09:18.648Z,12.19
2022-10-23T08:11:46.598Z,12.41
2022-10-23T08:14:15.103Z,12.58
2022-10-23T08:16:43.154Z,12.56
2022-10-23T08:19:14.120Z,12.40
2022-10-23T08:21:41.634Z,12.35
2022-10-23T08:24:14.922Z,11.41
2022-10-23T08:26:43.312Z,12.11
2022-10-23T08:29:10.944Z,12.40
2022-10-23T08:31:38.672Z,12.76
2022-10-23T08:34:07.868Z,12.98
2022-10-23T08:36:36.495Z,13.16
2022-10-23T08:39:04.592Z,13.45
2022-10-23T08:41:36.316Z,13.47
2022-10-23T08:44:47.246Z,13.79
2022-10-23T08:47:24.236Z,13.65
2022-10-23T08:50:02.191Z,13.28
2022-10-23T08:52:36.511Z,13.18
2022-10-23T08:55:42.881Z,13.22
2022-10-23T09:01:43.101Z,13.09
2022-10-23T09:04:15.370Z,13.38
2022-10-23T09:07:02.509Z,13.12
2022-10-23T09:09:30.405Z,13.28
2022-10-23T09:12:23.630Z,13.72
2022-10-23T09:15:03.288Z,13.80
2022-10-23T09:17:33.626Z,13.27
2022-10-23T09:20:27.795Z,13.44
2022-10-23T09:22:59.546Z,13.56
2022-10-23T09:25:30.593Z,13.73
2022-10-23T09:28:04.460Z,13.29
2022-10-23T09:30:35.290Z,12.89
2022-10-23T09:33:24.474Z,13.25
2022-10-23T09:35:58.391Z,13.01
2022-10-23T09:38:32.703Z,13.28
2022-10-23T09:41:23.347Z,13.64
2022-10-23T09:44:02.490Z,13.94
2022-10-23T09:46:53.718Z,13.30
2022-10-23T09:49:30.156Z,13.47
2022-10-23T09:52:09.947Z,13.22
2022-10-23T09:54:44.867Z,13.32
2022-10-23T09:57:42.730Z,13.51
2022-10-23T10:00:16.888Z,13.52
2022-10-23T10:02:59.746Z,13.53
2022-10-23T10:05:41.210Z,13.23
2022-10-23T10:08:09.272Z,13.56
2022-10-23T10:10:42.322Z,12.98
2022-10-23T10:13:45.231Z,12.99
2022-10-23T10:16:31.487Z,13.43
2022-10-23T10:19:04.071Z,13.49
2022-10-23T10:21:53.102Z,13.29
2022-10-23T10:24:47.748Z,13.41
2022-10-23T10:27:38.888Z,12.96
2022-10-23T10:30:23.671Z,13.33
2022-10-23T10:33:20.676Z,13.32
2022-10-23T10:36:42.598Z,13.32
2022-10-23T10:39:58.988Z,13.44
2022-10-23T10:42:55.584Z,13.61
2022-10-23T10:45:36.351Z,13.43
2022-10-23T10:48:47.786Z,13.66
2022-10-23T10:51:29.317Z,13.91
2022-10-23T10:54:18.371Z,13.83
2022-10-23T10:56:47.784Z,13.69
2022-10-23T10:59:29.105Z,13.49
2022-10-23T11:02:41.437Z,13.72
2022-10-23T11:05:12.078Z,13.67
2022-10-23T11:08:10.941Z,13.28
2022-10-23T11:10:44.901Z,13.57
2022-10-23T11:13:35.660Z,13.92
2022-10-23T11:16:12.029Z,14.06
2022-10-23T11:18:43.995Z,13.50
2022-10-23T11:21:14.752Z,13.83
2022-10-23T11:24:00.674Z,13.47
2022-10-23T11:27:02.160Z,13.50
2022-10-23T11:29:48.971Z,14.17
2022-10-23T11:32:43.878Z,13.94
2022-10-23T11:35:11.307Z,13.96
2022-10-23T11:37:39.319Z,13.78
2022-10-23T11:40:06.785Z,13.86
2022-10-23T11:42:40.282Z,14.14
2022-10-23T11:45:27.684Z,14.09
2022-10-23T11:48:01.510Z,13.84
2022-10-23T11:50:53.609Z,13.46
2022-10-23T11:53:33.145Z,13.80
2022-10-23T11:56:04.601Z,13.70
2022-10-23T11:58:50.383Z,13.38
2022-10-23T12:01:33.366Z,13.55
2022-10-23T12:04:13.478Z,13.65
2022-10-23T12:06:42.884Z,13.86
2022-10-23T12:09:41.637Z,13.84
2022-10-23T12:12:09.202Z,14.02
2022-10-23T12:14:50.402Z,14.14
2022-10-23T12:17:40.142Z,13.83
2022-10-23T12:20:08.072Z,14.02
2022-10-23T12:22:47.857Z,14.21
2022-10-23T12:25:20.040Z,14.21
2022-10-23T12:28:13.882Z,13.73
2022-10-23T12:31:00.882Z,13.93
2022-10-23T12:34:11.557Z,13.78
2022-10-23T12:36:48.112Z,13.67
2022-10-23T12:39:30.197Z,13.91
2022-10-23T12:42:02.802Z,13.90
2022-10-23T12:44:31.075Z,13.81
2022-10-23T12:47:04.142Z,13.54
2022-10-23T12:49:33.756Z,14.09
2022-10-23T12:52:06.615Z,13.91
2022-10-23T12:54:39.845Z,14.27
2022-10-23T12:57:28.903Z,14.15
2022-10-23T13:00:04.579Z,14.26
2022-10-23T13:02:32.851Z,14.23
2022-10-23T13:05:05.455Z,14.29
2022-10-23T13:07:37.609Z,14.36
2022-10-23T13:10:06.473Z,14.27
2022-10-23T13:12:36.310Z,13.96
2022-10-23T13:15:06.964Z,14.35
2022-10-23T13:17:39.669Z,14.31
2022-10-23T13:20:23.842Z,14.61
2022-10-23T13:23:00.578Z,14.26
2022-10-23T13:25:34.596Z,14.22
2022-10-23T13:28:08.636Z,14.45
2022-10-23T13:30:39.550Z,14.78
2022-10-23T13:33:15.581Z,14.45
2022-10-23T13:35:43.840Z,14.38
2022-10-23T13:38:13.563Z,14.58
2022-10-23T13:40:41.212Z,14.75
2022-10-23T13:43:14.980Z,14.46
2022-10-23T13:45:42.909Z,14.70
2022-10-23T13:48:15.046Z,14.58
2022-10-23T13:50:42.950Z,14.03
2022-10-23T13:53:13.208Z,14.65
2022-10-23T13:55:44.487Z,14.47
2022-10-23T13:58:12.523Z,14.63
2022-10-23T14:00:40.740Z,14.46
2022-10-23T14:03:09.377Z,14.58
2022-10-23T14:05:37.188Z,14.78
2022-10-23T14:08:05.013Z,14.83
2022-10-23T14:10:33.832Z,14.44
2022-10-23T14:13:01.393Z,14.30
2022-10-23T14:15:28.911Z,14.86
2022-10-23T14:18:00.194Z,14.81
2022-10-23T14:20:30.341Z,14.44
2022-10-23T14:22:58.014Z,14.24
2022-10-23T14:25:25.843Z,14.67
2022-10-23T14:27:53.454Z,14.34
2022-10-23T14:30:21.083Z,14.71
2022-10-23T14:32:54.865Z,14.40
2022-10-23T14:35:22.534Z,14.67
2022-10-23T14:37:50.336Z,14.74
2022-10-23T14:40:17.894Z,14.60
2022-10-23T14:42:45.728Z,14.76
2022-10-23T14:45:13.931Z,14.61
2022-10-23T14:47:42.093Z,14.10
2022-10-23T14:50:12.014Z,14.00
2022-10-23T14:52:40.157Z,14.37
2022-10-23T14:55:08.712Z,13.89
2022-10-23T14:57:37.491Z,14.03
2022-10-23T15:00:06.877Z,13.82
2022-10-23T15:02:34.781Z,13.69
2022-10-23T15:05:02.307Z,13.91
2022-10-23T15:07:32.822Z,13.99
2022-10-23T15:10:00.635Z,13.78
2022-10-23T15:12:28.210Z,13.75
2022-10-23T15:14:56.154Z,13.86
2022-10-23T15:17:23.850Z,13.68
2022-10-23T15:19:51.819Z,13.45
2022-10-23T15:22:19.893Z,13.96
2022-10-23T15:24:49.133Z,13.70
2022-10-23T15:27:16.706Z,14.14
2022-10-23T15:29:45.175Z,13.81
2022-10-23T15:32:12.799Z,13.46
2022-10-23T15:34:42.776Z,13.58
2022-10-23T15:37:11.427Z,13.64
2022-10-23T15:39:39.283Z,13.50
2022-10-23T15:42:07.118Z,13.69
2022-10-23T15:44:35.158Z,13.99
2022-10-23T15:47:03.014Z,13.88
2022-10-23T15:49:30.806Z,13.58
2022-10-23T15:51:59.463Z,13.81
2022-10-23T15:54:30.499Z,13.20
2022-10-23T15:57:01.511Z,13.69
2022-10-23T15:59:30.713Z,13.56
2022-10-23T16:01:58.552Z,13.58
2022-10-23T16:04:28.496Z,13.85
2022-10-23T16:06:56.365Z,13.81
2022-10-23T16:09:23.906Z,14.04
2022-10-23T16:11:52.036Z,13.55
2022-10-23T16:14:19.819Z,13.63
2022-10-23T16:16:47.705Z,13.56
2022-10-23T16:19:15.685Z,13.58
2022-10-23T16:21:43.573Z,14.10
2022-10-23T16:24:11.766Z,14.35
2022-10-23T16:26:39.808Z,13.64
2022-10-23T16:29:09.478Z,14.09
2022-10-23T16:31:37.286Z,13.80
2022-10-23T16:34:05.963Z,14.30
2022-10-23T16:36:34.758Z,14.36
2022-10-23T16:39:05.742Z,14.28
2022-10-23T16:41:43.444Z,13.52
2022-10-23T16:44:16.613Z,13.72
2022-10-23T16:46:46.137Z,13.92
2022-10-23T16:49:14.513Z,13.72
2022-10-23T16:51:42.280Z,13.66
2022-10-23T16:54:10.814Z,13.41
2022-10-23T16:56:38.479Z,13.84
2022-10-23T16:59:06.650Z,13.47
2022-10-23T17:01:34.936Z,14.20
2022-10-23T17:04:02.894Z,14.23
2022-10-23T17:06:32.542Z,14.00
2022-10-23T17:09:02.049Z,14.13
2022-10-23T17:11:32.756Z,14.35
2022-10-23T17:14:07.444Z,14.10
2022-10-23T17:16:45.619Z,14.16
2022-10-23T17:19:33.094Z,14.00
2022-10-23T17:22:10.453Z,14.30
2022-10-23T17:24:40.264Z,14.21
2022-10-23T17:27:08.850Z,14.06
2022-10-23T17:29:39.197Z,14.23
2022-10-23T17:32:07.558Z,14.00
2022-10-23T17:34:36.689Z,13.38
2022-10-23T17:37:08.036Z,13.61
2022-10-23T17:39:36.169Z,13.81
2022-10-23T17:42:04.512Z,13.43
2022-10-23T17:44:32.357Z,13.56
2022-10-23T17:47:00.592Z,13.85
2022-10-23T17:49:28.358Z,13.98
2022-10-23T17:51:57.775Z,14.19
2022-10-23T17:54:27.245Z,13.72
2022-10-23T17:56:55.700Z,13.57
2022-10-23T17:59:23.657Z,13.62
2022-10-23T18:01:51.941Z,13.42
2022-10-23T18:04:21.055Z,13.57
2022-10-23T18:06:51.320Z,13.91
2022-10-23T18:09:20.856Z,14.10
2022-10-23T18:11:49.853Z,14.29
2022-10-23T18:14:19.647Z,14.02
2022-10-23T18:16:48.212Z,14.15
2022-10-23T18:19:20.594Z,13.95
2022-10-23T18:21:49.078Z,13.66
2022-10-23T18:24:17.719Z,13.99
2022-10-23T18:26:47.946Z,14.13
2022-10-23T18:29:17.532Z,14.24
2022-10-23T18:31:48.245Z,14.18
2022-10-23T18:34:24.722Z,13.81
2022-10-23T18:36:54.502Z,13.75
2022-10-23T18:39:24.684Z,13.75
2022-10-23T18:41:55.882Z,14.08
2022-10-23T18:44:25.388Z,14.37
2022-10-23T18:46:54.279Z,14.37
2022-10-23T18:49:21.926Z,14.06
2022-10-23T18:51:50.494Z,14.27
2022-10-23T18:54:21.075Z,14.12
2022-10-23T18:56:49.456Z,13.95
2022-10-23T18:59:20.115Z,14.35
2022-10-23T19:01:49.356Z,14.36
2022-10-23T19:04:18.511Z,14.30
2022-10-23T19:06:47.401Z,14.04
2022-10-23T19:09:19.491Z,14.14
2022-10-23T19:11:47.359Z,14.20
2022-10-23T19:14:16.021Z,14.05
2022-10-23T19:17:11.096Z,13.96
2022-10-23T19:19:53.913Z,13.86
2022-10-23T19:22:22.738Z,13.78
2022-10-23T19:24:56.373Z,13.87
2022-10-23T19:27:25.827Z,13.89
2022-10-23T19:29:55.689Z,13.48
2022-10-23T19:32:23.570Z,13.73
2022-10-23T19:34:51.981Z,13.82
2022-10-23T19:37:20.115Z,13.51
2022-10-23T19:39:48.082Z,13.79
2022-10-23T19:42:15.940Z,13.75
2022-10-23T19:44:44.210Z,13.63
2022-10-23T19:47:12.035Z,13.66
2022-10-23T19:49:39.913Z,13.35
2022-10-23T19:52:07.953Z,13.49
2022-10-23T19:54:36.009Z,13.56
2022-10-23T19:57:04.156Z,13.58
2022-10-23T19:59:32.406Z,13.33
2022-10-23T20:02:00.421Z,13.07
2022-10-23T20:04:28.992Z,13.19
2022-10-23T20:06:57.392Z,13.35
2022-10-23T20:09:24.951Z,13.55
2022-10-23T20:11:53.196Z,13.37
2022-10-23T20:14:21.035Z,13.60
2022-10-23T20:16:55.735Z,13.12
2022-10-23T20:19:24.669Z,13.62
2022-10-23T20:21:52.517Z,13.26
2022-10-23T20:24:21.721Z,13.24
2022-10-23T20:26:54.187Z,13.19
2022-10-23T20:29:23.217Z,13.67
2022-10-23T20:31:51.563Z,13.50
2022-10-23T20:34:19.634Z,13.39
2022-10-23T20:36:49.511Z,13.56
2022-10-23T20:39:21.888Z,13.49
2022-10-23T20:41:49.712Z,13.34
2022-10-23T20:44:18.891Z,13.51
2022-10-23T20:46:47.288Z,13.46
2022-10-23T20:49:16.201Z,13.53
2022-10-23T20:51:44.902Z,13.27
2022-10-23T20:54:12.554Z,13.54
2022-10-23T20:56:40.133Z,13.69
2022-10-23T20:59:11.566Z,13.72
2022-10-23T21:01:44.660Z,13.77
2022-10-23T21:04:14.003Z,13.57
2022-10-23T21:06:57.763Z,13.24
2022-10-23T21:09:30.588Z,13.25
2022-10-23T21:11:58.308Z,13.63
2022-10-23T21:14:25.968Z,13.53
2022-10-23T21:16:53.896Z,12.82
2022-10-23T21:19:21.406Z,13.18
2022-10-23T21:21:49.101Z,13.23
2022-10-23T21:24:17.828Z,13.52
2022-10-23T21:26:45.756Z,13.74
2022-10-23T21:29:18.622Z,13.71
2022-10-23T21:32:01.095Z,13.52
2022-10-23T21:34:31.647Z,13.70
2022-10-23T21:37:12.333Z,13.74
2022-10-23T21:39:42.568Z,13.63
2022-10-23T21:42:11.789Z,13.25
2022-10-23T21:44:39.501Z,13.42
2022-10-23T21:47:07.100Z,13.61
2022-10-23T21:49:35.141Z,13.47
2022-10-23T21:52:04.082Z,12.78
2022-10-23T21:54:32.122Z,13.29
2022-10-23T21:57:00.006Z,13.23
2022-10-23T21:59:30.143Z,13.36
2022-10-23T22:01:59.283Z,13.14
2022-10-23T22:04:27.384Z,13.02
2022-10-23T22:06:55.305Z,13.17
2022-10-23T22:09:23.581Z,13.16
2022-10-23T22:11:53.226Z,13.25
2022-10-23T22:14:21.723Z,13.13
2022-10-23T22:16:49.395Z,13.15
2022-10-23T22:19:18.537Z,13.40
2022-10-23T22:21:46.514Z,13.43
2022-10-23T22:24:14.622Z,13.55
2022-10-23T22:26:46.129Z,13.50
2022-10-23T22:29:17.173Z,13.08
2022-10-23T22:31:48.791Z,13.54
2022-10-23T22:34:47.775Z,13.47
2022-10-23T22:37:13.562Z,13.61
2022-10-23T22:39:41.279Z,13.66
2022-10-23T22:42:08.949Z,13.51
2022-10-23T22:44:36.801Z,13.76
2022-10-23T22:47:04.569Z,13.85
2022-10-23T22:49:32.342Z,13.63
2022-10-23T22:52:00.320Z,13.52
2022-10-23T22:54:28.093Z,13.71
2022-10-23T22:56:55.627Z,13.93
2022-10-23T22:59:23.501Z,13.81
2022-10-23T23:01:51.532Z,13.89
2022-10-23T23:04:37.270Z,13.92
2022-10-23T23:07:08.639Z,13.92
2022-10-23T23:09:38.482Z,13.92
2022-10-23T23:12:08.887Z,13.71
2022-10-23T23:14:36.800Z,13.80
2022-10-23T23:17:04.799Z,13.67
2022-10-23T23:19:32.803Z,13.04
2022-10-23T23:22:00.769Z,13.42
2022-10-23T23:24:28.495Z,13.43
2022-10-23T23:26:56.383Z,13.03
2022-10-23T23:29:24.542Z,13.47
2022-10-23T23:31:54.241Z,13.43
2022-10-23T23:34:22.205Z,13.58
2022-10-23T23:36:49.708Z,13.08
2022-10-23T23:39:17.428Z,13.18
2022-10-23T23:41:45.223Z,13.53
2022-10-23T23:44:12.745Z,13.46
2022-10-23T23:46:40.353Z,13.61
2022-10-23T23:49:08.218Z,13.34
2022-10-23T23:51:36.758Z,13.58
2022-10-23T23:54:04.842Z,13.65
2022-10-23T23:56:32.738Z,13.61
2022-10-23T23:59:00.358Z,13.56
